sensor_id;sensor_type;location;lat;lon;timestamp;pressure;altitude;pressure_sealevel;temperature;humidity
76378;BME280;65200;49.500;8.654;2023-05-19T00:01:50;101037.31;;;12.57;52.01
76378;BME280;65200;49.500;8.654;2023-05-19T00:04:17;101029.44;;;12.56;52.15
76378;BME280;65200;49.500;8.654;2023-05-19T00:06:45;101031.03;;;12.50;52.20
76378;BME280;65200;49.500;8.654;2023-05-19T00:09:15;101044.38;;;12.58;51.63
76378;BME280;65200;49.500;8.654;2023-05-19T00:11:44;101034.19;;;12.54;51.85
76378;BME280;65200;49.500;8.654;2023-05-19T00:14:11;101033.16;;;12.55;51.82
76378;BME280;65200;49.500;8.654;2023-05-19T00:16:38;100984.59;;;12.12;53.02
76378;BME280;65200;49.500;8.654;2023-05-19T00:19:06;101030.09;;;12.43;52.56
76378;BME280;65200;49.500;8.654;2023-05-19T00:21:36;101032.41;;;12.46;51.42
76378;BME280;65200;49.500;8.654;2023-05-19T00:24:03;101027.59;;;12.41;51.71
76378;BME280;65200;49.500;8.654;2023-05-19T00:26:30;101016.28;;;12.31;52.69
76378;BME280;65200;49.500;8.654;2023-05-19T00:28:58;101025.94;;;12.40;51.50
76378;BME280;65200;49.500;8.654;2023-05-19T00:31:25;101021.94;;;12.36;52.47
76378;BME280;65200;49.500;8.654;2023-05-19T00:33:51;101031.22;;;12.34;53.09
76378;BME280;65200;49.500;8.654;2023-05-19T00:36:18;101032.78;;;12.28;52.30
76378;BME280;65200;49.500;8.654;2023-05-19T00:38:45;101009.53;;;12.21;52.22
76378;BME280;65200;49.500;8.654;2023-05-19T00:41:11;101028.44;;;12.27;51.34
76378;BME280;65200;49.500;8.654;2023-05-19T00:43:38;101034.91;;;12.33;52.04
76378;BME280;65200;49.500;8.654;2023-05-19T00:46:06;101031.50;;;12.24;51.95
76378;BME280;65200;49.500;8.654;2023-05-19T00:48:35;101023.16;;;12.19;53.06
76378;BME280;65200;49.500;8.654;2023-05-19T00:51:02;101018.78;;;12.33;51.77
76378;BME280;65200;49.500;8.654;2023-05-19T00:53:31;101024.53;;;12.30;51.58
76378;BME280;65200;49.500;8.654;2023-05-19T00:55:59;101030.66;;;12.24;53.11
76378;BME280;65200;49.500;8.654;2023-05-19T00:58:26;101016.84;;;12.27;51.73
76378;BME280;65200;49.500;8.654;2023-05-19T01:00:55;101012.22;;;12.21;52.14
76378;BME280;65200;49.500;8.654;2023-05-19T01:03:29;101022.88;;;12.29;52.12
76378;BME280;65200;49.500;8.654;2023-05-19T01:05:57;101022.41;;;12.25;52.72
76378;BME280;65200;49.500;8.654;2023-05-19T01:08:26;101028.34;;;12.35;52.36
76378;BME280;65200;49.500;8.654;2023-05-19T01:10:53;100993.03;;;12.24;52.10
76378;BME280;65200;49.500;8.654;2023-05-19T01:13:20;101018.97;;;12.31;51.92
76378;BME280;65200;49.500;8.654;2023-05-19T01:15:57;101009.44;;;12.29;51.88
76378;BME280;65200;49.500;8.654;2023-05-19T01:18:34;100974.31;;;12.01;52.36
76378;BME280;65200;49.500;8.654;2023-05-19T01:21:19;101019.16;;;12.30;52.26
76378;BME280;65200;49.500;8.654;2023-05-19T01:23:53;101009.44;;;12.14;52.34
76378;BME280;65200;49.500;8.654;2023-05-19T01:26:42;101010.06;;;12.16;52.20
76378;BME280;65200;49.500;8.654;2023-05-19T01:29:40;101007.75;;;11.99;51.93
76378;BME280;65200;49.500;8.654;2023-05-19T01:32:09;101006.47;;;12.09;52.16
76378;BME280;65200;49.500;8.654;2023-05-19T01:34:41;101011.47;;;12.12;52.34
76378;BME280;65200;49.500;8.654;2023-05-19T01:37:09;101012.66;;;12.10;51.60
76378;BME280;65200;49.500;8.654;2023-05-19T01:39:37;101003.22;;;11.99;52.30
76378;BME280;65200;49.500;8.654;2023-05-19T01:42:05;101004.06;;;12.00;51.60
76378;BME280;65200;49.500;8.654;2023-05-19T01:44:32;100974.84;;;11.82;52.88
76378;BME280;65200;49.500;8.654;2023-05-19T01:46:59;101023.03;;;11.98;53.32
76378;BME280;65200;49.500;8.654;2023-05-19T01:49:27;101016.47;;;12.01;51.94
76378;BME280;65200;49.500;8.654;2023-05-19T01:51:55;101007.44;;;11.94;52.11
76378;BME280;65200;49.500;8.654;2023-05-19T01:54:22;100983.34;;;11.71;52.71
76378;BME280;65200;49.500;8.654;2023-05-19T01:56:59;101034.22;;;12.02;52.37
76378;BME280;65200;49.500;8.654;2023-05-19T01:59:38;101032.50;;;12.09;51.22
76378;BME280;65200;49.500;8.654;2023-05-19T02:02:14;101042.66;;;11.99;52.42
76378;BME280;65200;49.500;8.654;2023-05-19T02:04:52;101036.38;;;11.92;51.46
76378;BME280;65200;49.500;8.654;2023-05-19T02:07:25;101017.06;;;11.74;52.16
76378;BME280;65200;49.500;8.654;2023-05-19T02:09:59;101041.34;;;11.80;51.83
76378;BME280;65200;49.500;8.654;2023-05-19T02:12:32;101046.13;;;11.70;53.22
76378;BME280;65200;49.500;8.654;2023-05-19T02:15:04;101052.34;;;11.71;53.77
76378;BME280;65200;49.500;8.654;2023-05-19T02:17:34;101053.56;;;11.83;52.46
76378;BME280;65200;49.500;8.654;2023-05-19T02:20:03;101044.91;;;11.73;52.88
76378;BME280;65200;49.500;8.654;2023-05-19T02:22:30;101056.03;;;11.70;53.07
76378;BME280;65200;49.500;8.654;2023-05-19T02:24:56;101054.00;;;11.72;53.55
76378;BME280;65200;49.500;8.654;2023-05-19T02:27:23;101052.72;;;11.60;53.17
76378;BME280;65200;49.500;8.654;2023-05-19T02:29:50;101044.19;;;11.64;53.08
76378;BME280;65200;49.500;8.654;2023-05-19T02:32:17;101038.91;;;11.63;52.76
76378;BME280;65200;49.500;8.654;2023-05-19T02:34:43;101039.53;;;11.73;52.28
76378;BME280;65200;49.500;8.654;2023-05-19T02:37:12;101057.28;;;11.59;53.79
76378;BME280;65200;49.500;8.654;2023-05-19T02:39:38;101043.53;;;11.54;53.31
76378;BME280;65200;49.500;8.654;2023-05-19T02:42:05;101052.72;;;11.60;53.19
76378;BME280;65200;49.500;8.654;2023-05-19T02:44:31;101035.13;;;11.35;54.70
76378;BME280;65200;49.500;8.654;2023-05-19T02:46:58;101051.31;;;11.27;55.23
76378;BME280;65200;49.500;8.654;2023-05-19T02:49:25;101042.47;;;11.18;55.79
76378;BME280;65200;49.500;8.654;2023-05-19T02:51:51;101048.38;;;11.14;56.45
76378;BME280;65200;49.500;8.654;2023-05-19T02:54:19;101044.53;;;11.31;54.43
76378;BME280;65200;49.500;8.654;2023-05-19T02:56:45;101036.72;;;11.21;56.42
76378;BME280;65200;49.500;8.654;2023-05-19T02:59:12;101018.06;;;11.05;55.70
76378;BME280;65200;49.500;8.654;2023-05-19T03:01:39;101025.63;;;11.01;56.46
76378;BME280;65200;49.500;8.654;2023-05-19T03:04:05;101038.81;;;11.11;55.52
76378;BME280;65200;49.500;8.654;2023-05-19T03:06:32;101028.00;;;10.96;55.94
76378;BME280;65200;49.500;8.654;2023-05-19T03:08:58;101042.50;;;11.10;56.52
76378;BME280;65200;49.500;8.654;2023-05-19T03:11:26;100986.88;;;10.43;59.40
76378;BME280;65200;49.500;8.654;2023-05-19T03:13:53;101043.09;;;10.59;59.27
76378;BME280;65200;49.500;8.654;2023-05-19T03:16:20;101039.63;;;10.50;58.91
76378;BME280;65200;49.500;8.654;2023-05-19T03:18:46;100996.03;;;10.18;59.11
76378;BME280;65200;49.500;8.654;2023-05-19T03:21:13;101038.31;;;10.38;60.80
76378;BME280;65200;49.500;8.654;2023-05-19T03:23:39;100991.19;;;9.97;61.44
76378;BME280;65200;49.500;8.654;2023-05-19T03:26:06;101036.69;;;10.29;60.99
76378;BME280;65200;49.500;8.654;2023-05-19T03:28:34;101039.09;;;10.08;61.31
76378;BME280;65200;49.500;8.654;2023-05-19T03:31:00;101044.25;;;10.18;60.27
76378;BME280;65200;49.500;8.654;2023-05-19T03:33:27;101045.88;;;10.27;59.99
76378;BME280;65200;49.500;8.654;2023-05-19T03:35:55;101046.94;;;10.18;62.25
76378;BME280;65200;49.500;8.654;2023-05-19T03:38:22;101037.56;;;10.14;60.97
76378;BME280;65200;49.500;8.654;2023-05-19T03:40:48;101037.38;;;9.99;62.72
76378;BME280;65200;49.500;8.654;2023-05-19T03:43:15;101046.78;;;9.79;65.64
76378;BME280;65200;49.500;8.654;2023-05-19T03:45:43;101044.44;;;9.76;63.77
76378;BME280;65200;49.500;8.654;2023-05-19T03:48:09;101054.66;;;9.81;62.26
76378;BME280;65200;49.500;8.654;2023-05-19T03:50:36;101053.47;;;9.83;62.58
76378;BME280;65200;49.500;8.654;2023-05-19T03:53:03;101056.81;;;9.85;62.03
76378;BME280;65200;49.500;8.654;2023-05-19T03:55:30;101061.16;;;9.78;63.67
76378;BME280;65200;49.500;8.654;2023-05-19T03:57:56;101057.81;;;9.68;65.65
76378;BME280;65200;49.500;8.654;2023-05-19T04:00:23;101070.03;;;9.54;65.58
76378;BME280;65200;49.500;8.654;2023-05-19T04:02:51;101034.06;;;9.33;65.89
76378;BME280;65200;49.500;8.654;2023-05-19T04:05:18;101078.88;;;9.47;65.39
76378;BME280;65200;49.500;8.654;2023-05-19T04:07:44;101070.34;;;9.35;66.55
76378;BME280;65200;49.500;8.654;2023-05-19T04:10:12;101042.72;;;9.11;67.05
76378;BME280;65200;49.500;8.654;2023-05-19T04:12:38;101045.09;;;9.14;66.68
76378;BME280;65200;49.500;8.654;2023-05-19T04:15:06;101069.03;;;9.39;65.92
76378;BME280;65200;49.500;8.654;2023-05-19T04:17:35;101074.19;;;9.25;70.21
76378;BME280;65200;49.500;8.654;2023-05-19T04:20:04;101066.03;;;8.85;70.70
76378;BME280;65200;49.500;8.654;2023-05-19T04:22:31;101075.72;;;8.78;71.14
76378;BME280;65200;49.500;8.654;2023-05-19T04:24:57;101072.50;;;8.66;71.25
76378;BME280;65200;49.500;8.654;2023-05-19T04:27:24;101076.44;;;8.88;69.34
76378;BME280;65200;49.500;8.654;2023-05-19T04:29:52;101060.44;;;9.04;68.58
76378;BME280;65200;49.500;8.654;2023-05-19T04:32:19;101085.69;;;9.17;69.03
76378;BME280;65200;49.500;8.654;2023-05-19T04:34:46;101034.28;;;8.82;71.39
76378;BME280;65200;49.500;8.654;2023-05-19T04:37:14;101069.25;;;8.96;70.28
76378;BME280;65200;49.500;8.654;2023-05-19T04:39:41;101090.03;;;9.10;70.79
76378;BME280;65200;49.500;8.654;2023-05-19T04:42:09;101085.50;;;9.19;70.09
76378;BME280;65200;49.500;8.654;2023-05-19T04:44:36;101088.53;;;9.24;69.75
76378;BME280;65200;49.500;8.654;2023-05-19T04:47:05;101074.19;;;9.25;69.65
76378;BME280;65200;49.500;8.654;2023-05-19T04:49:33;101092.25;;;9.47;67.82
76378;BME280;65200;49.500;8.654;2023-05-19T04:52:04;101095.44;;;9.50;68.61
76378;BME280;65200;49.500;8.654;2023-05-19T04:54:33;101067.50;;;9.53;67.28
76378;BME280;65200;49.500;8.654;2023-05-19T04:56:59;101088.09;;;9.77;66.86
76378;BME280;65200;49.500;8.654;2023-05-19T04:59:26;101096.31;;;9.91;68.00
76378;BME280;65200;49.500;8.654;2023-05-19T05:01:52;101093.78;;;9.98;69.74
76378;BME280;65200;49.500;8.654;2023-05-19T05:04:20;101084.63;;;10.08;67.63
76378;BME280;65200;49.500;8.654;2023-05-19T05:06:46;101086.25;;;10.25;69.40
76378;BME280;65200;49.500;8.654;2023-05-19T05:09:13;101093.56;;;10.47;65.85
76378;BME280;65200;49.500;8.654;2023-05-19T05:11:42;101084.34;;;10.50;66.74
76378;BME280;65200;49.500;8.654;2023-05-19T05:14:09;101087.47;;;10.69;65.66
76378;BME280;65200;49.500;8.654;2023-05-19T05:16:36;101092.16;;;10.67;65.85
76378;BME280;65200;49.500;8.654;2023-05-19T05:19:17;101080.09;;;10.71;67.06
76378;BME280;65200;49.500;8.654;2023-05-19T05:21:50;101093.38;;;10.95;66.82
76378;BME280;65200;49.500;8.654;2023-05-19T05:24:18;101067.47;;;10.80;65.35
76378;BME280;65200;49.500;8.654;2023-05-19T05:26:47;101064.47;;;10.75;65.42
76378;BME280;65200;49.500;8.654;2023-05-19T05:29:13;101093.16;;;11.05;64.02
76378;BME280;65200;49.500;8.654;2023-05-19T05:31:40;101078.06;;;11.12;65.99
76378;BME280;65200;49.500;8.654;2023-05-19T05:34:06;101081.19;;;11.24;67.21
76378;BME280;65200;49.500;8.654;2023-05-19T05:36:33;101092.09;;;11.45;64.45
76378;BME280;65200;49.500;8.654;2023-05-19T05:39:00;101061.84;;;11.28;64.70
76378;BME280;65200;49.500;8.654;2023-05-19T05:41:28;101096.38;;;11.54;64.22
76378;BME280;65200;49.500;8.654;2023-05-19T05:44:00;101088.28;;;11.62;64.73
76378;BME280;65200;49.500;8.654;2023-05-19T05:46:27;101088.44;;;11.68;65.54
76378;BME280;65200;49.500;8.654;2023-05-19T05:48:54;101086.69;;;11.75;62.49
76378;BME280;65200;49.500;8.654;2023-05-19T05:51:24;101084.28;;;11.66;64.47
76378;BME280;65200;49.500;8.654;2023-05-19T05:53:52;101081.22;;;11.69;63.81
76378;BME280;65200;49.500;8.654;2023-05-19T05:56:19;101080.31;;;11.76;64.25
76378;BME280;65200;49.500;8.654;2023-05-19T05:58:46;101083.94;;;11.83;64.66
76378;BME280;65200;49.500;8.654;2023-05-19T06:01:15;101079.97;;;11.94;64.49
76378;BME280;65200;49.500;8.654;2023-05-19T06:03:42;101079.91;;;12.02;64.07
76378;BME280;65200;49.500;8.654;2023-05-19T06:06:09;101069.25;;;12.08;63.77
76378;BME280;65200;49.500;8.654;2023-05-19T06:08:36;101072.72;;;12.17;65.37
76378;BME280;65200;49.500;8.654;2023-05-19T06:11:03;101060.41;;;12.22;64.29
76378;BME280;65200;49.500;8.654;2023-05-19T06:13:32;101072.44;;;12.41;62.75
76378;BME280;65200;49.500;8.654;2023-05-19T06:15:59;101073.50;;;12.55;63.00
76378;BME280;65200;49.500;8.654;2023-05-19T06:18:27;101073.28;;;12.85;60.10
76378;BME280;65200;49.500;8.654;2023-05-19T06:20:54;101072.06;;;13.17;60.66
76378;BME280;65200;49.500;8.654;2023-05-19T06:23:20;101077.59;;;13.30;60.01
76378;BME280;65200;49.500;8.654;2023-05-19T06:25:48;101074.66;;;13.46;57.84
76378;BME280;65200;49.500;8.654;2023-05-19T06:28:14;101018.47;;;13.01;58.50
76378;BME280;65200;49.500;8.654;2023-05-19T06:30:41;101069.59;;;13.36;60.71
76378;BME280;65200;49.500;8.654;2023-05-19T06:33:08;101069.97;;;13.33;60.03
76378;BME280;65200;49.500;8.654;2023-05-19T06:35:35;101056.44;;;13.48;57.98
76378;BME280;65200;49.500;8.654;2023-05-19T06:38:02;101076.50;;;13.66;58.95
76378;BME280;65200;49.500;8.654;2023-05-19T06:40:28;101065.31;;;13.91;54.39
76378;BME280;65200;49.500;8.654;2023-05-19T06:42:55;101068.50;;;14.01;55.51
76378;BME280;65200;49.500;8.654;2023-05-19T06:45:22;101074.44;;;14.17;51.23
76378;BME280;65200;49.500;8.654;2023-05-19T06:47:49;101050.63;;;14.21;52.45
76378;BME280;65200;49.500;8.654;2023-05-19T06:50:16;101068.88;;;14.46;50.72
76378;BME280;65200;49.500;8.654;2023-05-19T06:52:43;101066.22;;;14.53;50.50
76378;BME280;65200;49.500;8.654;2023-05-19T06:55:11;101034.97;;;14.31;53.12
76378;BME280;65200;49.500;8.654;2023-05-19T06:57:43;101063.31;;;14.54;51.74
76378;BME280;65200;49.500;8.654;2023-05-19T07:00:13;101052.53;;;14.54;51.58
76378;BME280;65200;49.500;8.654;2023-05-19T07:02:41;101066.56;;;14.77;50.65
76378;BME280;65200;49.500;8.654;2023-05-19T07:05:07;101060.25;;;15.11;51.36
76378;BME280;65200;49.500;8.654;2023-05-19T07:07:34;101065.63;;;15.78;48.19
76378;BME280;65200;49.500;8.654;2023-05-19T07:10:05;101060.81;;;16.58;45.79
76378;BME280;65200;49.500;8.654;2023-05-19T07:12:32;101055.63;;;17.07;45.77
76378;BME280;65200;49.500;8.654;2023-05-19T07:14:58;101052.53;;;17.48;44.95
76378;BME280;65200;49.500;8.654;2023-05-19T07:17:25;101049.69;;;17.67;43.00
76378;BME280;65200;49.500;8.654;2023-05-19T07:19:51;101042.25;;;17.81;42.42
76378;BME280;65200;49.500;8.654;2023-05-19T07:22:18;101040.56;;;18.11;42.42
76378;BME280;65200;49.500;8.654;2023-05-19T07:24:46;101040.22;;;18.26;41.59
76378;BME280;65200;49.500;8.654;2023-05-19T07:27:14;101033.25;;;18.30;40.83
76378;BME280;65200;49.500;8.654;2023-05-19T07:29:41;101030.38;;;18.49;41.65
76378;BME280;65200;49.500;8.654;2023-05-19T07:32:07;101029.75;;;18.65;41.98
76378;BME280;65200;49.500;8.654;2023-05-19T07:34:34;101026.84;;;18.67;42.11
76378;BME280;65200;49.500;8.654;2023-05-19T07:37:00;101030.38;;;18.85;38.70
76378;BME280;65200;49.500;8.654;2023-05-19T07:39:27;101030.28;;;18.92;39.09
76378;BME280;65200;49.500;8.654;2023-05-19T07:41:56;101027.81;;;18.90;39.84
76378;BME280;65200;49.500;8.654;2023-05-19T07:44:24;101017.53;;;18.92;40.76
76378;BME280;65200;49.500;8.654;2023-05-19T07:46:51;101034.59;;;18.45;40.39
76378;BME280;65200;49.500;8.654;2023-05-19T07:49:18;101026.47;;;19.11;39.99
76378;BME280;65200;49.500;8.654;2023-05-19T07:51:44;101012.66;;;19.31;37.18
76378;BME280;65200;49.500;8.654;2023-05-19T07:54:11;101017.00;;;19.61;36.50
76378;BME280;65200;49.500;8.654;2023-05-19T07:56:37;101027.84;;;19.50;36.31
76378;BME280;65200;49.500;8.654;2023-05-19T07:59:04;101020.50;;;19.50;36.29
76378;BME280;65200;49.500;8.654;2023-05-19T08:01:33;101024.09;;;19.62;39.64
76378;BME280;65200;49.500;8.654;2023-05-19T08:04:00;101019.38;;;19.81;36.61
76378;BME280;65200;49.500;8.654;2023-05-19T08:06:27;101017.66;;;20.09;39.87
76378;BME280;65200;49.500;8.654;2023-05-19T08:08:54;101009.34;;;19.93;35.84
76378;BME280;65200;49.500;8.654;2023-05-19T08:11:21;100983.59;;;19.95;36.52
76378;BME280;65200;49.500;8.654;2023-05-19T08:13:47;100996.59;;;20.05;40.03
76378;BME280;65200;49.500;8.654;2023-05-19T08:16:14;101011.03;;;19.41;38.91
76378;BME280;65200;49.500;8.654;2023-05-19T08:18:44;101020.50;;;19.50;39.95
76378;BME280;65200;49.500;8.654;2023-05-19T08:21:10;101017.88;;;19.14;42.77
76378;BME280;65200;49.500;8.654;2023-05-19T08:23:37;101018.50;;;18.98;42.22
76378;BME280;65200;49.500;8.654;2023-05-19T08:26:05;101009.47;;;18.86;39.82
76378;BME280;65200;49.500;8.654;2023-05-19T08:28:31;101013.50;;;19.13;41.48
76378;BME280;65200;49.500;8.654;2023-05-19T08:31:00;100953.97;;;18.28;43.46
76378;BME280;65200;49.500;8.654;2023-05-19T08:33:29;101001.19;;;18.45;45.01
76378;BME280;65200;49.500;8.654;2023-05-19T08:35:57;101007.25;;;18.65;45.64
76378;BME280;65200;49.500;8.654;2023-05-19T08:38:23;101007.97;;;19.49;42.41
76378;BME280;65200;49.500;8.654;2023-05-19T08:40:50;101001.84;;;20.18;37.97
76378;BME280;65200;49.500;8.654;2023-05-19T08:43:17;101000.47;;;20.55;36.72
76378;BME280;65200;49.500;8.654;2023-05-19T08:45:44;100984.53;;;20.24;37.79
76378;BME280;65200;49.500;8.654;2023-05-19T08:48:12;100993.47;;;20.59;34.21
76378;BME280;65200;49.500;8.654;2023-05-19T08:50:39;100997.75;;;20.67;36.45
76378;BME280;65200;49.500;8.654;2023-05-19T08:53:12;100996.94;;;20.31;38.72
76378;BME280;65200;49.500;8.654;2023-05-19T08:55:46;100988.81;;;19.44;41.21
76378;BME280;65200;49.500;8.654;2023-05-19T08:58:17;100986.19;;;19.08;42.07
76378;BME280;65200;49.500;8.654;2023-05-19T09:00:46;100982.72;;;18.71;41.95
76378;BME280;65200;49.500;8.654;2023-05-19T09:03:13;100970.53;;;18.92;43.45
76378;BME280;65200;49.500;8.654;2023-05-19T09:05:41;100975.44;;;19.13;41.46
76378;BME280;65200;49.500;8.654;2023-05-19T09:08:10;100974.03;;;19.52;40.06
76378;BME280;65200;49.500;8.654;2023-05-19T09:10:36;100969.13;;;19.72;38.86
76378;BME280;65200;49.500;8.654;2023-05-19T09:13:04;100952.06;;;18.82;42.43
76378;BME280;65200;49.500;8.654;2023-05-19T09:15:31;100955.25;;;18.79;44.83
76378;BME280;65200;49.500;8.654;2023-05-19T09:18:05;100971.09;;;19.12;41.13
76378;BME280;65200;49.500;8.654;2023-05-19T09:20:36;100952.38;;;18.74;43.79
76378;BME280;65200;49.500;8.654;2023-05-19T09:23:02;100961.31;;;19.23;41.02
76378;BME280;65200;49.500;8.654;2023-05-19T09:25:31;100969.00;;;18.66;42.11
76378;BME280;65200;49.500;8.654;2023-05-19T09:27:57;100968.00;;;18.43;41.58
76378;BME280;65200;49.500;8.654;2023-05-19T09:30:24;100966.63;;;18.34;42.43
76378;BME280;65200;49.500;8.654;2023-05-19T09:32:51;100961.47;;;18.50;46.28
76378;BME280;65200;49.500;8.654;2023-05-19T09:35:17;100962.13;;;18.64;40.71
76378;BME280;65200;49.500;8.654;2023-05-19T09:37:45;100948.56;;;18.46;41.45
76378;BME280;65200;49.500;8.654;2023-05-19T09:40:13;100966.09;;;19.39;40.65
76378;BME280;65200;49.500;8.654;2023-05-19T09:42:41;100956.50;;;19.89;41.18
76378;BME280;65200;49.500;8.654;2023-05-19T09:45:08;100954.44;;;19.50;42.11
76378;BME280;65200;49.500;8.654;2023-05-19T09:47:36;100940.59;;;18.80;43.02
76378;BME280;65200;49.500;8.654;2023-05-19T09:50:06;100955.94;;;18.75;42.24
76378;BME280;65200;49.500;8.654;2023-05-19T09:52:37;100954.09;;;19.17;39.66
76378;BME280;65200;49.500;8.654;2023-05-19T09:55:08;100935.53;;;19.13;42.54
76378;BME280;65200;49.500;8.654;2023-05-19T09:57:36;100948.06;;;19.56;39.87
76378;BME280;65200;49.500;8.654;2023-05-19T10:00:06;100950.22;;;20.23;38.13
76378;BME280;65200;49.500;8.654;2023-05-19T10:02:40;100946.31;;;20.19;43.15
76378;BME280;65200;49.500;8.654;2023-05-19T10:05:10;100947.13;;;19.21;43.40
76378;BME280;65200;49.500;8.654;2023-05-19T10:07:38;100941.19;;;19.65;41.88
76378;BME280;65200;49.500;8.654;2023-05-19T10:10:08;100937.91;;;19.97;43.58
76378;BME280;65200;49.500;8.654;2023-05-19T10:12:35;100934.50;;;19.79;42.03
76378;BME280;65200;49.500;8.654;2023-05-19T10:15:07;100951.16;;;19.82;41.13
76378;BME280;65200;49.500;8.654;2023-05-19T10:17:34;100914.13;;;19.70;41.31
76378;BME280;65200;49.500;8.654;2023-05-19T10:20:03;100940.84;;;19.84;42.53
76378;BME280;65200;49.500;8.654;2023-05-19T10:22:31;100900.88;;;19.50;41.16
76378;BME280;65200;49.500;8.654;2023-05-19T10:24:58;100932.63;;;20.54;41.47
76378;BME280;65200;49.500;8.654;2023-05-19T10:27:25;100931.06;;;20.58;40.55
76378;BME280;65200;49.500;8.654;2023-05-19T10:29:56;100885.75;;;19.89;41.38
76378;BME280;65200;49.500;8.654;2023-05-19T10:32:30;100908.94;;;19.91;44.12
76378;BME280;65200;49.500;8.654;2023-05-19T10:35:18;100913.22;;;20.50;39.36
76378;BME280;65200;49.500;8.654;2023-05-19T10:37:56;100886.03;;;20.38;37.89
76378;BME280;65200;49.500;8.654;2023-05-19T10:40:26;100889.31;;;20.52;38.80
76378;BME280;65200;49.500;8.654;2023-05-19T10:43:05;100913.06;;;20.96;39.40
76378;BME280;65200;49.500;8.654;2023-05-19T10:45:42;100905.75;;;20.85;34.55
76378;BME280;65200;49.500;8.654;2023-05-19T10:48:14;100915.50;;;21.42;35.77
76378;BME280;65200;49.500;8.654;2023-05-19T10:50:42;100903.38;;;21.17;32.76
76378;BME280;65200;49.500;8.654;2023-05-19T10:53:13;100889.25;;;21.53;33.42
76378;BME280;65200;49.500;8.654;2023-05-19T10:55:46;100910.06;;;21.75;38.66
76378;BME280;65200;49.500;8.654;2023-05-19T10:58:35;100898.16;;;21.82;34.86
76378;BME280;65200;49.500;8.654;2023-05-19T11:01:06;100919.31;;;21.74;38.79
76378;BME280;65200;49.500;8.654;2023-05-19T11:03:47;100908.66;;;21.23;38.59
76378;BME280;65200;49.500;8.654;2023-05-19T11:06:17;100911.78;;;20.48;41.54
76378;BME280;65200;49.500;8.654;2023-05-19T11:08:45;100916.31;;;21.10;34.08
76378;BME280;65200;49.500;8.654;2023-05-19T11:11:13;100906.91;;;21.17;36.83
76378;BME280;65200;49.500;8.654;2023-05-19T11:13:42;100867.03;;;21.99;34.20
76378;BME280;65200;49.500;8.654;2023-05-19T11:16:12;100880.03;;;22.14;35.90
76378;BME280;65200;49.500;8.654;2023-05-19T11:18:38;100901.53;;;22.05;35.30
76378;BME280;65200;49.500;8.654;2023-05-19T11:21:07;100891.56;;;21.78;38.83
76378;BME280;65200;49.500;8.654;2023-05-19T11:23:36;100890.63;;;21.06;40.11
76378;BME280;65200;49.500;8.654;2023-05-19T11:26:05;100865.78;;;20.91;38.45
76378;BME280;65200;49.500;8.654;2023-05-19T11:28:32;100881.09;;;21.91;36.67
76378;BME280;65200;49.500;8.654;2023-05-19T11:30:59;100861.88;;;20.42;40.89
76378;BME280;65200;49.500;8.654;2023-05-19T11:33:26;100885.53;;;19.56;44.36
76378;BME280;65200;49.500;8.654;2023-05-19T11:35:54;100895.44;;;19.73;39.82
76378;BME280;65200;49.500;8.654;2023-05-19T11:38:23;100885.41;;;19.62;38.85
76378;BME280;65200;49.500;8.654;2023-05-19T11:40:52;100882.44;;;19.87;40.41
76378;BME280;65200;49.500;8.654;2023-05-19T11:43:21;100861.84;;;19.91;39.52
76378;BME280;65200;49.500;8.654;2023-05-19T11:45:48;100863.13;;;20.11;40.33
76378;BME280;65200;49.500;8.654;2023-05-19T11:48:15;100887.50;;;20.29;40.16
76378;BME280;65200;49.500;8.654;2023-05-19T11:50:42;100876.28;;;19.68;40.52
76378;BME280;65200;49.500;8.654;2023-05-19T11:53:12;100869.66;;;19.30;43.57
76378;BME280;65200;49.500;8.654;2023-05-19T11:55:44;100870.84;;;19.57;41.43
76378;BME280;65200;49.500;8.654;2023-05-19T11:58:11;100871.28;;;20.23;38.75
76378;BME280;65200;49.500;8.654;2023-05-19T12:00:39;100870.06;;;20.70;36.35
76378;BME280;65200;49.500;8.654;2023-05-19T12:03:06;100867.84;;;21.12;37.14
76378;BME280;65200;49.500;8.654;2023-05-19T12:05:35;100871.72;;;21.32;37.87
76378;BME280;65200;49.500;8.654;2023-05-19T12:08:03;100863.31;;;20.89;39.27
76378;BME280;65200;49.500;8.654;2023-05-19T12:10:30;100868.97;;;21.16;36.77
76378;BME280;65200;49.500;8.654;2023-05-19T12:13:00;100880.41;;;21.46;37.82
76378;BME280;65200;49.500;8.654;2023-05-19T12:15:26;100876.91;;;21.34;36.34
76378;BME280;65200;49.500;8.654;2023-05-19T12:17:56;100877.25;;;21.54;35.58
76378;BME280;65200;49.500;8.654;2023-05-19T12:20:23;100855.59;;;21.31;34.20
76378;BME280;65200;49.500;8.654;2023-05-19T12:22:50;100881.06;;;21.20;36.04
76378;BME280;65200;49.500;8.654;2023-05-19T12:25:17;100876.50;;;21.42;37.25
76378;BME280;65200;49.500;8.654;2023-05-19T12:27:44;100874.19;;;21.34;34.84
76378;BME280;65200;49.500;8.654;2023-05-19T12:30:15;100853.16;;;20.57;39.64
76378;BME280;65200;49.500;8.654;2023-05-19T12:32:47;100873.41;;;20.21;40.88
76378;BME280;65200;49.500;8.654;2023-05-19T12:35:26;100876.66;;;19.60;45.47
76378;BME280;65200;49.500;8.654;2023-05-19T12:37:54;100878.13;;;19.22;45.88
76378;BME280;65200;49.500;8.654;2023-05-19T12:40:20;100825.41;;;18.58;45.61
76378;BME280;65200;49.500;8.654;2023-05-19T12:42:48;100871.94;;;18.62;45.02
76378;BME280;65200;49.500;8.654;2023-05-19T12:45:20;100871.25;;;18.66;44.10
76378;BME280;65200;49.500;8.654;2023-05-19T12:47:50;100866.34;;;18.86;45.73
76378;BME280;65200;49.500;8.654;2023-05-19T12:50:17;100868.25;;;18.56;46.38
76378;BME280;65200;49.500;8.654;2023-05-19T12:52:46;100824.16;;;18.43;44.44
76378;BME280;65200;49.500;8.654;2023-05-19T12:55:14;100867.47;;;19.08;43.33
76378;BME280;65200;49.500;8.654;2023-05-19T12:57:41;100872.88;;;19.61;41.22